sensor_id;sensor_type;location;lat;lon;timestamp;pressure;altitude;pressure_sealevel;temperature;humidity
20628;BME280;10473;42.734;24.258;2023-02-15T00:01:34;92744.78;;;-0.61;72.21
20628;BME280;10473;42.734;24.258;2023-02-15T00:04:02;92756.56;;;-0.69;72.40
20628;BME280;10473;42.734;24.258;2023-02-15T00:06:30;92772.41;;;-0.42;71.53
20628;BME280;10473;42.734;24.258;2023-02-15T00:08:59;92781.97;;;-0.61;71.90
20628;BME280;10473;42.734;24.258;2023-02-15T00:11:27;92777.69;;;-0.47;72.52
20628;BME280;10473;42.734;24.258;2023-02-15T00:14:10;92766.91;;;-0.64;72.88
20628;BME280;10473;42.734;24.258;2023-02-15T00:16:39;92776.88;;;-0.71;72.68
20628;BME280;10473;42.734;24.258;2023-02-15T00:19:07;92778.59;;;-0.61;73.05
20628;BME280;10473;42.734;24.258;2023-02-15T00:21:36;92755.06;;;-0.51;71.77
20628;BME280;10473;42.734;24.258;2023-02-15T00:24:05;92768.28;;;-0.48;73.46
20628;BME280;10473;42.734;24.258;2023-02-15T00:26:34;92778.31;;;-0.36;72.49
20628;BME280;10473;42.734;24.258;2023-02-15T00:29:02;92770.19;;;-0.30;71.91
20628;BME280;10473;42.734;24.258;2023-02-15T00:31:32;92774.44;;;-0.15;72.39
20628;BME280;10473;42.734;24.258;2023-02-15T00:34:02;92772.13;;;-0.17;72.11
20628;BME280;10473;42.734;24.258;2023-02-15T00:36:30;92778.88;;;-0.16;72.18
20628;BME280;10473;42.734;24.258;2023-02-15T00:38:58;92773.16;;;-0.18;72.19
20628;BME280;10473;42.734;24.258;2023-02-15T00:41:26;92777.22;;;-0.07;70.51
20628;BME280;10473;42.734;24.258;2023-02-15T00:43:54;92759.47;;;-0.05;70.40
20628;BME280;10473;42.734;24.258;2023-02-15T00:46:21;92755.66;;;-0.12;70.81
20628;BME280;10473;42.734;24.258;2023-02-15T00:48:50;92755.81;;;-0.04;69.95
20628;BME280;10473;42.734;24.258;2023-02-15T00:51:18;92751.66;;;-0.05;70.36
20628;BME280;10473;42.734;24.258;2023-02-15T00:53:47;92739.31;;;0.06;70.40
20628;BME280;10473;42.734;24.258;2023-02-15T00:56:15;92735.97;;;0.00;69.76
20628;BME280;10473;42.734;24.258;2023-02-15T00:58:43;92753.88;;;0.07;70.87
20628;BME280;10473;42.734;24.258;2023-02-15T01:01:13;92751.41;;;-0.03;70.24
20628;BME280;10473;42.734;24.258;2023-02-15T01:03:42;92747.59;;;0.08;69.91
20628;BME280;10473;42.734;24.258;2023-02-15T01:06:11;92748.25;;;0.18;70.56
20628;BME280;10473;42.734;24.258;2023-02-15T01:08:39;92745.72;;;0.13;69.47
20628;BME280;10473;42.734;24.258;2023-02-15T01:11:10;92745.97;;;-0.07;70.63
20628;BME280;10473;42.734;24.258;2023-02-15T01:13:38;92735.38;;;0.08;70.59
20628;BME280;10473;42.734;24.258;2023-02-15T01:16:07;92736.84;;;0.14;70.56
20628;BME280;10473;42.734;24.258;2023-02-15T01:18:35;92735.44;;;0.22;69.37
20628;BME280;10473;42.734;24.258;2023-02-15T01:21:11;92732.69;;;0.32;68.56
20628;BME280;10473;42.734;24.258;2023-02-15T01:23:40;92736.44;;;0.08;70.14
20628;BME280;10473;42.734;24.258;2023-02-15T01:26:08;92733.69;;;0.17;69.61
20628;BME280;10473;42.734;24.258;2023-02-15T01:28:36;92731.84;;;-0.01;69.62
20628;BME280;10473;42.734;24.258;2023-02-15T01:31:06;92738.84;;;-0.01;69.94
20628;BME280;10473;42.734;24.258;2023-02-15T01:33:34;92732.13;;;0.16;69.51
20628;BME280;10473;42.734;24.258;2023-02-15T01:36:03;92737.97;;;0.08;68.68
20628;BME280;10473;42.734;24.258;2023-02-15T01:38:34;92749.06;;;0.14;69.41
20628;BME280;10473;42.734;24.258;2023-02-15T01:41:02;92746.91;;;0.21;68.87
20628;BME280;10473;42.734;24.258;2023-02-15T01:43:54;92739.97;;;-0.07;69.58
20628;BME280;10473;42.734;24.258;2023-02-15T01:46:26;92728.53;;;-0.77;71.90
20628;BME280;10473;42.734;24.258;2023-02-15T01:48:59;92735.19;;;-0.42;70.47
20628;BME280;10473;42.734;24.258;2023-02-15T01:51:31;92741.09;;;-0.60;70.83
20628;BME280;10473;42.734;24.258;2023-02-15T01:54:04;92744.00;;;-0.38;70.34
20628;BME280;10473;42.734;24.258;2023-02-15T01:56:37;92737.69;;;-0.32;70.63
20628;BME280;10473;42.734;24.258;2023-02-15T01:59:11;92746.66;;;-0.20;69.57
20628;BME280;10473;42.734;24.258;2023-02-15T02:01:41;92741.00;;;-0.50;70.33
20628;BME280;10473;42.734;24.258;2023-02-15T02:04:14;92739.13;;;-0.68;70.77
20628;BME280;10473;42.734;24.258;2023-02-15T02:06:44;92743.91;;;-0.52;71.33
20628;BME280;10473;42.734;24.258;2023-02-15T02:09:15;92745.41;;;-0.46;70.29
20628;BME280;10473;42.734;24.258;2023-02-15T02:11:45;92743.91;;;-0.52;70.13
20628;BME280;10473;42.734;24.258;2023-02-15T02:14:14;92739.84;;;-0.63;70.47
20628;BME280;10473;42.734;24.258;2023-02-15T02:16:46;92737.22;;;-0.63;70.80
20628;BME280;10473;42.734;24.258;2023-02-15T02:22:43;92740.78;;;-0.54;71.62
20628;BME280;10473;42.734;24.258;2023-02-15T02:25:45;92742.78;;;-0.46;71.05
20628;BME280;10473;42.734;24.258;2023-02-15T02:28:37;92745.41;;;-0.74;71.36
20628;BME280;10473;42.734;24.258;2023-02-15T02:31:35;92743.13;;;-0.76;71.59
20628;BME280;10473;42.734;24.258;2023-02-15T02:34:12;92756.16;;;-0.81;72.13
20628;BME280;10473;42.734;24.258;2023-02-15T02:36:48;92748.22;;;-0.66;70.79
20628;BME280;10473;42.734;24.258;2023-02-15T02:39:25;92748.00;;;-0.74;71.06
20628;BME280;10473;42.734;24.258;2023-02-15T02:42:00;92756.78;;;-0.65;71.21
20628;BME280;10473;42.734;24.258;2023-02-15T02:44:33;92766.88;;;-0.87;71.41
20628;BME280;10473;42.734;24.258;2023-02-15T02:47:09;92756.16;;;-0.81;71.88
20628;BME280;10473;42.734;24.258;2023-02-15T02:49:40;92756.06;;;-0.71;71.30
20628;BME280;10473;42.734;24.258;2023-02-15T02:52:40;92752.63;;;-0.66;70.70
20628;BME280;10473;42.734;24.258;2023-02-15T02:55:11;92756.97;;;-0.57;70.72
20628;BME280;10473;42.734;24.258;2023-02-15T02:57:44;92759.75;;;-0.77;71.22
20628;BME280;10473;42.734;24.258;2023-02-15T03:00:17;92763.56;;;-0.69;70.96
20628;BME280;10473;42.734;24.258;2023-02-15T03:02:47;92776.56;;;-0.64;70.99
20628;BME280;10473;42.734;24.258;2023-02-15T03:05:21;92768.78;;;-0.69;71.56
20628;BME280;10473;42.734;24.258;2023-02-15T03:07:52;92773.13;;;-0.60;71.46
20628;BME280;10473;42.734;24.258;2023-02-15T03:10:23;92773.66;;;-0.91;71.13
20628;BME280;10473;42.734;24.258;2023-02-15T03:12:52;92777.91;;;-0.72;71.49
20628;BME280;10473;42.734;24.258;2023-02-15T03:15:21;92783.34;;;-0.68;71.02
20628;BME280;10473;42.734;24.258;2023-02-15T03:17:56;92785.78;;;-0.82;71.16
20628;BME280;10473;42.734;24.258;2023-02-15T03:20:30;92782.06;;;-0.71;71.16
20628;BME280;10473;42.734;24.258;2023-02-15T03:23:03;92786.53;;;-0.76;71.96
20628;BME280;10473;42.734;24.258;2023-02-15T03:25:34;92796.69;;;-0.75;71.67
20628;BME280;10473;42.734;24.258;2023-02-15T03:28:07;92798.25;;;-0.79;71.73
20628;BME280;10473;42.734;24.258;2023-02-15T03:30:38;92796.16;;;-0.77;72.61
20628;BME280;10473;42.734;24.258;2023-02-15T03:33:08;92793.84;;;-0.78;71.41
20628;BME280;10473;42.734;24.258;2023-02-15T03:35:44;92797.63;;;-0.66;71.96
20628;BME280;10473;42.734;24.258;2023-02-15T03:38:20;92799.72;;;-0.68;71.26
20628;BME280;10473;42.734;24.258;2023-02-15T03:40:50;92807.00;;;-0.65;71.04
20628;BME280;10473;42.734;24.258;2023-02-15T03:43:44;92789.94;;;-0.76;71.35
20628;BME280;10473;42.734;24.258;2023-02-15T03:46:17;92795.50;;;-0.87;73.20
20628;BME280;10473;42.734;24.258;2023-02-15T03:48:52;92795.09;;;-0.71;72.19
20628;BME280;10473;42.734;24.258;2023-02-15T03:51:26;92799.50;;;-0.71;71.31
20628;BME280;10473;42.734;24.258;2023-02-15T03:54:02;92802.84;;;-0.66;71.99
20628;BME280;10473;42.734;24.258;2023-02-15T03:56:30;92808.13;;;-0.76;71.62
20628;BME280;10473;42.734;24.258;2023-02-15T03:58:58;92816.16;;;-0.72;71.43
20628;BME280;10473;42.734;24.258;2023-02-15T04:01:48;92815.66;;;-1.08;72.57
20628;BME280;10473;42.734;24.258;2023-02-15T04:04:30;92806.38;;;-0.85;72.32
20628;BME280;10473;42.734;24.258;2023-02-15T04:07:01;92810.25;;;-1.50;73.48
20628;BME280;10473;42.734;24.258;2023-02-15T04:09:29;92817.78;;;-1.10;73.10
20628;BME280;10473;42.734;24.258;2023-02-15T04:12:14;92816.91;;;-1.00;72.64
20628;BME280;10473;42.734;24.258;2023-02-15T04:14:41;92806.84;;;-1.12;72.12
20628;BME280;10473;42.734;24.258;2023-02-15T04:17:27;92821.44;;;-1.11;73.36
20628;BME280;10473;42.734;24.258;2023-02-15T04:19:55;92814.88;;;-1.03;72.46
20628;BME280;10473;42.734;24.258;2023-02-15T04:22:42;92827.19;;;-1.19;72.65
20628;BME280;10473;42.734;24.258;2023-02-15T04:25:28;92826.66;;;-1.16;73.02
20628;BME280;10473;42.734;24.258;2023-02-15T04:27:55;92827.25;;;-1.29;73.95
20628;BME280;10473;42.734;24.258;2023-02-15T04:30:24;92836.50;;;-1.13;73.06
20628;BME280;10473;42.734;24.258;2023-02-15T04:32:53;92834.50;;;-1.21;72.45
20628;BME280;10473;42.734;24.258;2023-02-15T04:35:21;92826.09;;;-1.13;72.55
20628;BME280;10473;42.734;24.258;2023-02-15T04:37:50;92829.63;;;-0.99;73.15
20628;BME280;10473;42.734;24.258;2023-02-15T04:40:18;92822.34;;;-0.97;72.84
20628;BME280;10473;42.734;24.258;2023-02-15T04:42:47;92839.25;;;-1.38;74.94
20628;BME280;10473;42.734;24.258;2023-02-15T04:45:15;92830.28;;;-1.17;75.10
20628;BME280;10473;42.734;24.258;2023-02-15T04:47:43;92828.09;;;-1.00;73.38
20628;BME280;10473;42.734;24.258;2023-02-15T04:50:11;92828.28;;;-0.91;73.65
20628;BME280;10473;42.734;24.258;2023-02-15T04:52:39;92840.50;;;-0.92;74.41
20628;BME280;10473;42.734;24.258;2023-02-15T04:55:08;92848.56;;;-0.88;72.92
20628;BME280;10473;42.734;24.258;2023-02-15T04:57:36;92836.56;;;-0.89;73.47
20628;BME280;10473;42.734;24.258;2023-02-15T05:00:04;92839.91;;;-0.84;72.62
20628;BME280;10473;42.734;24.258;2023-02-15T05:02:32;92843.81;;;-0.81;71.47
20628;BME280;10473;42.734;24.258;2023-02-15T05:05:00;92846.22;;;-0.90;72.10
20628;BME280;10473;42.734;24.258;2023-02-15T05:07:28;92854.50;;;-0.88;72.24
20628;BME280;10473;42.734;24.258;2023-02-15T05:09:55;92857.22;;;-1.03;73.25
20628;BME280;10473;42.734;24.258;2023-02-15T05:12:25;92858.94;;;-0.88;71.63
20628;BME280;10473;42.734;24.258;2023-02-15T05:14:53;92853.13;;;-1.09;72.83
20628;BME280;10473;42.734;24.258;2023-02-15T05:17:20;92851.97;;;-1.31;73.94
20628;BME280;10473;42.734;24.258;2023-02-15T05:19:48;92860.81;;;-1.32;73.65
20628;BME280;10473;42.734;24.258;2023-02-15T05:22:16;92859.97;;;-1.23;73.41
20628;BME280;10473;42.734;24.258;2023-02-15T05:24:43;92870.38;;;-1.28;73.84
20628;BME280;10473;42.734;24.258;2023-02-15T05:27:30;92861.00;;;-1.24;73.46
20628;BME280;10473;42.734;24.258;2023-02-15T05:30:15;92866.28;;;-1.34;74.43
20628;BME280;10473;42.734;24.258;2023-02-15T05:32:42;92874.03;;;-1.29;74.44
20628;BME280;10473;42.734;24.258;2023-02-15T05:35:13;92879.31;;;-1.44;75.13
20628;BME280;10473;42.734;24.258;2023-02-15T05:37:41;92871.88;;;-1.17;73.73
20628;BME280;10473;42.734;24.258;2023-02-15T05:40:09;92878.25;;;-0.99;73.72
20628;BME280;10473;42.734;24.258;2023-02-15T05:42:39;92873.28;;;-0.91;74.01
20628;BME280;10473;42.734;24.258;2023-02-15T05:45:07;92878.09;;;-0.79;74.22
20628;BME280;10473;42.734;24.258;2023-02-15T05:47:35;92885.97;;;-0.51;73.94
20628;BME280;10473;42.734;24.258;2023-02-15T05:50:03;92886.31;;;-0.34;73.61
20628;BME280;10473;42.734;24.258;2023-02-15T05:52:31;92896.44;;;-0.04;72.28
20628;BME280;10473;42.734;24.258;2023-02-15T05:54:59;92892.28;;;-0.05;72.08
20628;BME280;10473;42.734;24.258;2023-02-15T05:57:38;92899.19;;;0.33;72.07
20628;BME280;10473;42.734;24.258;2023-02-15T06:00:07;92909.78;;;0.60;69.62
20628;BME280;10473;42.734;24.258;2023-02-15T06:02:39;92898.34;;;0.98;69.66
20628;BME280;10473;42.734;24.258;2023-02-15T06:05:07;92903.16;;;1.10;69.62
20628;BME280;10473;42.734;24.258;2023-02-15T06:07:35;92898.59;;;1.52;69.24
20628;BME280;10473;42.734;24.258;2023-02-15T06:10:03;92910.69;;;1.81;67.19
20628;BME280;10473;42.734;24.258;2023-02-15T06:12:32;92908.91;;;2.22;68.07
20628;BME280;10473;42.734;24.258;2023-02-15T06:15:01;92907.63;;;1.92;66.66
20628;BME280;10473;42.734;24.258;2023-02-15T06:17:29;92904.94;;;2.51;66.17
20628;BME280;10473;42.734;24.258;2023-02-15T06:19:56;92908.41;;;2.87;65.86
20628;BME280;10473;42.734;24.258;2023-02-15T06:22:24;92912.72;;;3.19;65.09
20628;BME280;10473;42.734;24.258;2023-02-15T06:24:52;92919.31;;;3.52;63.59
20628;BME280;10473;42.734;24.258;2023-02-15T06:27:19;92914.06;;;3.96;63.00
20628;BME280;10473;42.734;24.258;2023-02-15T06:29:47;92920.19;;;4.13;60.79
20628;BME280;10473;42.734;24.258;2023-02-15T06:32:16;92929.91;;;4.43;61.00
20628;BME280;10473;42.734;24.258;2023-02-15T06:34:45;92925.53;;;4.61;58.28
20628;BME280;10473;42.734;24.258;2023-02-15T06:37:13;92925.00;;;4.98;59.24
20628;BME280;10473;42.734;24.258;2023-02-15T06:39:41;92933.03;;;4.93;57.38
20628;BME280;10473;42.734;24.258;2023-02-15T06:42:10;92935.44;;;5.28;57.95
20628;BME280;10473;42.734;24.258;2023-02-15T06:44:38;92928.34;;;5.71;55.31
20628;BME280;10473;42.734;24.258;2023-02-15T06:47:05;92934.25;;;5.85;55.88
20628;BME280;10473;42.734;24.258;2023-02-15T06:49:34;92933.59;;;6.22;56.17
20628;BME280;10473;42.734;24.258;2023-02-15T06:52:02;92922.44;;;6.25;53.79
20628;BME280;10473;42.734;24.258;2023-02-15T06:54:30;92925.31;;;6.58;53.59
20628;BME280;10473;42.734;24.258;2023-02-15T06:56:58;92928.13;;;6.53;53.89
20628;BME280;10473;42.734;24.258;2023-02-15T06:59:26;92927.44;;;6.73;52.43
20628;BME280;10473;42.734;24.258;2023-02-15T07:01:54;92929.41;;;6.76;51.58
20628;BME280;10473;42.734;24.258;2023-02-15T07:04:21;92942.22;;;6.86;51.68
20628;BME280;10473;42.734;24.258;2023-02-15T07:06:51;92937.28;;;7.13;50.69
20628;BME280;10473;42.734;24.258;2023-02-15T07:09:18;92937.88;;;7.48;50.58
20628;BME280;10473;42.734;24.258;2023-02-15T07:11:46;92936.09;;;7.81;49.60
20628;BME280;10473;42.734;24.258;2023-02-15T07:14:31;92945.22;;;8.04;49.32
20628;BME280;10473;42.734;24.258;2023-02-15T07:16:59;92944.97;;;7.97;48.25
20628;BME280;10473;42.734;24.258;2023-02-15T07:19:26;92946.91;;;7.88;48.46
20628;BME280;10473;42.734;24.258;2023-02-15T07:21:55;92945.88;;;8.01;47.99
20628;BME280;10473;42.734;24.258;2023-02-15T07:24:23;92942.91;;;8.23;47.66
20628;BME280;10473;42.734;24.258;2023-02-15T07:26:51;92942.13;;;8.22;47.65
20628;BME280;10473;42.734;24.258;2023-02-15T07:29:19;92945.97;;;8.25;47.77
20628;BME280;10473;42.734;24.258;2023-02-15T07:31:46;92947.44;;;8.55;47.08
20628;BME280;10473;42.734;24.258;2023-02-15T07:34:14;92951.59;;;8.56;46.51
20628;BME280;10473;42.734;24.258;2023-02-15T07:36:42;92947.44;;;8.79;46.28
20628;BME280;10473;42.734;24.258;2023-02-15T07:39:12;92935.06;;;9.15;46.03
20628;BME280;10473;42.734;24.258;2023-02-15T07:41:39;92933.81;;;9.61;44.10
20628;BME280;10473;42.734;24.258;2023-02-15T07:44:12;92947.94;;;9.05;44.90
20628;BME280;10473;42.734;24.258;2023-02-15T07:46:40;92942.00;;;9.08;44.90
20628;BME280;10473;42.734;24.258;2023-02-15T07:49:08;92945.31;;;9.41;44.74
20628;BME280;10473;42.734;24.258;2023-02-15T07:51:35;92933.16;;;9.64;44.06
20628;BME280;10473;42.734;24.258;2023-02-15T07:54:03;92933.31;;;9.95;43.60
20628;BME280;10473;42.734;24.258;2023-02-15T07:56:32;92946.84;;;10.45;42.19
20628;BME280;10473;42.734;24.258;2023-02-15T07:59:00;92935.44;;;10.72;42.24
20628;BME280;10473;42.734;24.258;2023-02-15T08:01:30;92949.75;;;11.14;41.01
20628;BME280;10473;42.734;24.258;2023-02-15T08:03:58;92932.13;;;11.52;40.40
20628;BME280;10473;42.734;24.258;2023-02-15T08:06:29;92942.47;;;11.42;40.25
20628;BME280;10473;42.734;24.258;2023-02-15T08:08:57;92932.97;;;11.41;40.23
20628;BME280;10473;42.734;24.258;2023-02-15T08:11:26;92928.00;;;11.39;40.18
20628;BME280;10473;42.734;24.258;2023-02-15T08:14:01;92932.81;;;11.84;39.26
20628;BME280;10473;42.734;24.258;2023-02-15T08:16:32;92943.28;;;12.49;38.74
20628;BME280;10473;42.734;24.258;2023-02-15T08:19:03;92945.81;;;12.61;38.19
20628;BME280;10473;42.734;24.258;2023-02-15T08:21:32;92937.78;;;12.99;38.00
20628;BME280;10473;42.734;24.258;2023-02-15T08:24:00;92947.22;;;13.42;37.63
20628;BME280;10473;42.734;24.258;2023-02-15T08:26:28;92937.69;;;13.63;37.18
20628;BME280;10473;42.734;24.258;2023-02-15T08:28:57;92938.38;;;13.57;36.37
20628;BME280;10473;42.734;24.258;2023-02-15T08:31:27;92942.31;;;13.66;36.67
20628;BME280;10473;42.734;24.258;2023-02-15T08:33:56;92946.28;;;14.05;35.61
20628;BME280;10473;42.734;24.258;2023-02-15T08:36:26;92937.03;;;13.70;35.45
20628;BME280;10473;42.734;24.258;2023-02-15T08:38:57;92942.84;;;14.05;35.88
20628;BME280;10473;42.734;24.258;2023-02-15T08:41:27;92949.78;;;14.68;34.15
20628;BME280;10473;42.734;24.258;2023-02-15T08:43:57;92956.00;;;14.79;35.06
20628;BME280;10473;42.734;24.258;2023-02-15T08:46:28;92949.66;;;15.31;35.05
20628;BME280;10473;42.734;24.258;2023-02-15T08:48:56;92962.66;;;15.76;33.47
20628;BME280;10473;42.734;24.258;2023-02-15T08:51:26;92962.03;;;16.54;32.12
20628;BME280;10473;42.734;24.258;2023-02-15T08:53:56;92966.22;;;16.55;31.97
20628;BME280;10473;42.734;24.258;2023-02-15T08:56:26;92968.25;;;16.79;31.66
20628;BME280;10473;42.734;24.258;2023-02-15T08:58:54;92967.31;;;16.40;31.56
20628;BME280;10473;42.734;24.258;2023-02-15T09:01:24;92970.25;;;17.13;30.85
20628;BME280;10473;42.734;24.258;2023-02-15T09:03:56;92974.44;;;17.04;31.26
20628;BME280;10473;42.734;24.258;2023-02-15T09:06:24;92977.66;;;17.58;30.72
20628;BME280;10473;42.734;24.258;2023-02-15T09:08:53;92980.69;;;17.39;29.61
20628;BME280;10473;42.734;24.258;2023-02-15T09:11:21;92974.59;;;17.74;29.30
20628;BME280;10473;42.734;24.258;2023-02-15T09:13:52;92977.66;;;17.86;29.06
20628;BME280;10473;42.734;24.258;2023-02-15T09:16:21;92974.97;;;17.69;29.36
20628;BME280;10473;42.734;24.258;2023-02-15T09:18:49;92974.22;;;18.00;29.52
20628;BME280;10473;42.734;24.258;2023-02-15T09:21:20;92971.16;;;17.80;28.63
20628;BME280;10473;42.734;24.258;2023-02-15T09:23:49;92970.38;;;18.08;28.56
20628;BME280;10473;42.734;24.258;2023-02-15T09:26:19;92967.28;;;18.34;28.89
20628;BME280;10473;42.734;24.258;2023-02-15T09:28:47;92969.94;;;18.55;28.04
20628;BME280;10473;42.734;24.258;2023-02-15T09:31:17;92975.13;;;19.00;27.61
20628;BME280;10473;42.734;24.258;2023-02-15T09:33:48;92973.31;;;18.76;27.66
20628;BME280;10473;42.734;24.258;2023-02-15T09:36:17;92970.78;;;19.31;27.23
20628;BME280;10473;42.734;24.258;2023-02-15T09:38:47;92964.84;;;19.57;27.21
20628;BME280;10473;42.734;24.258;2023-02-15T09:41:41;92962.59;;;19.52;27.62
20628;BME280;10473;42.734;24.258;2023-02-15T09:44:20;92964.22;;;19.90;26.42
20628;BME280;10473;42.734;24.258;2023-02-15T09:47:03;92954.31;;;19.22;27.04
20628;BME280;10473;42.734;24.258;2023-02-15T09:49:42;92965.06;;;19.25;27.25
20628;BME280;10473;42.734;24.258;2023-02-15T09:52:57;92963.84;;;20.76;26.22
20628;BME280;10473;42.734;24.258;2023-02-15T09:55:37;92954.50;;;20.84;25.71
20628;BME280;10473;42.734;24.258;2023-02-15T09:58:58;92955.06;;;21.02;25.07
20628;BME280;10473;42.734;24.258;2023-02-15T10:02:03;92963.91;;;20.69;25.86
20628;BME280;10473;42.734;24.258;2023-02-15T10:05:10;92925.34;;;21.35;24.06
20628;BME280;10473;42.734;24.258;2023-02-15T10:08:08;92958.78;;;20.41;24.92
20628;BME280;10473;42.734;24.258;2023-02-15T10:11:10;92947.34;;;21.04;24.85
20628;BME280;10473;42.734;24.258;2023-02-15T10:15:38;92923.13;;;21.30;23.72
20628;BME280;10473;42.734;24.258;2023-02-15T10:23:21;92887.00;;;21.24;24.38
20628;BME280;10473;42.734;24.258;2023-02-15T10:26:16;92936.31;;;20.58;23.92
20628;BME280;10473;42.734;24.258;2023-02-15T10:28:48;92933.44;;;21.62;23.91
20628;BME280;10473;42.734;24.258;2023-02-15T10:32:01;92896.31;;;20.56;24.48
20628;BME280;10473;42.734;24.258;2023-02-15T10:34:48;92934.13;;;21.13;24.92
20628;BME280;10473;42.734;24.258;2023-02-15T10:40:15;92919.47;;;19.66;26.17
20628;BME280;10473;42.734;24.258;2023-02-15T10:51:31;92927.44;;;21.24;25.26
20628;BME280;10473;42.734;24.258;2023-02-15T10:54:08;92917.91;;;20.53;24.81
20628;BME280;10473;42.734;24.258;2023-02-15T10:56:45;92914.94;;;20.00;25.00
20628;BME280;10473;42.734;24.258;2023-02-15T10:59:42;92905.56;;;21.72;24.89
20628;BME280;10473;42.734;24.258;2023-02-15T11:02:20;92913.63;;;22.41;24.16
20628;BME280;10473;42.734;24.258;2023-02-15T11:04:55;92911.03;;;22.57;23.35
20628;BME280;10473;42.734;24.258;2023-02-15T11:07:29;92911.75;;;23.00;23.48
20628;BME280;10473;42.734;24.258;2023-02-15T11:10:07;92910.16;;;22.21;23.28
20628;BME280;10473;42.734;24.258;2023-02-15T11:12:42;92913.69;;;22.80;23.16
20628;BME280;10473;42.734;24.258;2023-02-15T11:15:20;92895.22;;;22.36;23.58
20628;BME280;10473;42.734;24.258;2023-02-15T11:17:53;92899.94;;;23.10;23.43
20628;BME280;10473;42.734;24.258;2023-02-15T11:20:27;92897.94;;;22.13;23.16
20628;BME280;10473;42.734;24.258;2023-02-15T11:23:00;92904.78;;;23.38;22.56
20628;BME280;10473;42.734;24.258;2023-02-15T11:25:31;92890.75;;;23.43;22.28
20628;BME280;10473;42.734;24.258;2023-02-15T11:28:00;92902.03;;;23.73;22.39
20628;BME280;10473;42.734;24.258;2023-02-15T11:30:41;92897.31;;;25.11;21.08
20628;BME280;10473;42.734;24.258;2023-02-15T11:33:15;92896.16;;;26.00;20.73
20628;BME280;10473;42.734;24.258;2023-02-15T11:35:50;92892.91;;;25.80;20.63
20628;BME280;10473;42.734;24.258;2023-02-15T11:38:21;92885.28;;;26.46;19.52
20628;BME280;10473;42.734;24.258;2023-02-15T11:40:53;92879.78;;;27.14;18.87
20628;BME280;10473;42.734;24.258;2023-02-15T11:43:28;92887.69;;;25.85;19.67
20628;BME280;10473;42.734;24.258;2023-02-15T11:46:00;92882.28;;;25.60;19.77
20628;BME280;10473;42.734;24.258;2023-02-15T11:48:29;92871.94;;;25.80;19.67
20628;BME280;10473;42.734;24.258;2023-02-15T11:50:59;92882.81;;;25.55;19.55
20628;BME280;10473;42.734;24.258;2023-02-15T11:53:31;92883.47;;;26.09;19.65
20628;BME280;10473;42.734;24.258;2023-02-15T11:56:00;92883.28;;;26.93;19.77
20628;BME280;10473;42.734;24.258;2023-02-15T11:58:33;92873.72;;;26.33;19.52
20628;BME280;10473;42.734;24.258;2023-02-15T12:01:09;92881.63;;;26.74;19.62
20628;BME280;10473;42.734;24.258;2023-02-15T12:03:46;92882.41;;;24.01;21.03
20628;BME280;10473;42.734;24.258;2023-02-15T12:06:21;92871.09;;;25.58;20.16
20628;BME280;10473;42.734;24.258;2023-02-15T12:08:55;92869.47;;;24.82;20.40
20628;BME280;10473;42.734;24.258;2023-02-15T12:11:30;92873.19;;;25.13;20.63
20628;BME280;10473;42.734;24.258;2023-02-15T12:14:01;92866.63;;;25.89;20.43
20628;BME280;10473;42.734;24.258;2023-02-15T12:16:33;92863.78;;;25.17;20.07
20628;BME280;10473;42.734;24.258;2023-02-15T12:19:17;92867.19;;;25.34;20.64
20628;BME280;10473;42.734;24.258;2023-02-15T12:21:50;92860.22;;;25.33;20.29
20628;BME280;10473;42.734;24.258;2023-02-15T12:24:28;92865.22;;;25.47;20.85
20628;BME280;10473;42.734;24.258;2023-02-15T12:27:13;92850.59;;;24.91;20.05
20628;BME280;10473;42.734;24.258;2023-02-15T12:33:28;92853.78;;;23.01;22.08
20628;BME280;10473;42.734;24.258;2023-02-15T12:36:00;92857.56;;;22.87;22.38
20628;BME280;10473;42.734;24.258;2023-02-15T12:45:23;92835.53;;;20.25;24.83
20628;BME280;10473;42.734;24.258;2023-02-15T12:48:16;92833.88;;;20.65;24.91
20628;BME280;10473;42.734;24.258;2023-02-15T12:50:45;92829.00;;;19.42;25.67
20628;BME280;10473;42.734;24.258;2023-02-15T12:53:15;92832.25;;;19.67;25.76
20628;BME280;10473;42.734;24.258;2023-02-15T12:55:53;92843.25;;;18.81;25.91
20628;BME280;10473;42.734;24.258;2023-02-15T12:58:23;92829.72;;;18.09;26.83
20628;BME280;10473;42.734;24.258;2023-02-15T13:01:10;92830.63;;;17.11;27.17
20628;BME280;10473;42.734;24.258;2023-02-15T13:03:55;92816.78;;;16.60;28.94
20628;BME280;10473;42.734;24.258;2023-02-15T13:06:24;92830.44;;;16.31;29.04
20628;BME280;10473;42.734;24.258;2023-02-15T13:08:54;92827.34;;;15.47;30.05
20628;BME280;10473;42.734;24.258;2023-02-15T13:11:26;92832.00;;;15.10;30.81
20628;BME280;10473;42.734;24.258;2023-02-15T13:13:58;92825.56;;;14.71;31.07
20628;BME280;10473;42.734;24.258;2023-02-15T13:16:30;92829.81;;;14.39;32.32
20628;BME280;10473;42.734;24.258;2023-02-15T13:19:04;92829.06;;;14.09;32.88
20628;BME280;10473;42.734;24.258;2023-02-15T13:21:37;92832.38;;;13.99;32.52
20628;BME280;10473;42.734;24.258;2023-02-15T13:24:18;92828.16;;;13.65;33.53
20628;BME280;10473;42.734;24.258;2023-02-15T13:26:47;92831.63;;;12.94;34.45
20628;BME280;10473;42.734;24.258;2023-02-15T13:29:20;92823.03;;;13.01;35.24
20628;BME280;10473;42.734;24.258;2023-02-15T13:31:50;92829.81;;;12.76;35.02
20628;BME280;10473;42.734;24.258;2023-02-15T13:34:23;92826.91;;;11.98;35.32
20628;BME280;10473;42.734;24.258;2023-02-15T13:36:57;92828.41;;;11.99;36.32
20628;BME280;10473;42.734;24.258;2023-02-15T13:39:31;92807.84;;;11.39;36.97
20628;BME280;10473;42.734;24.258;2023-02-15T13:42:09;92823.63;;;11.16;38.12
20628;BME280;10473;42.734;24.258;2023-02-15T13:44:55;92828.19;;;11.16;39.06
20628;BME280;10473;42.734;24.258;2023-02-15T13:47:32;92812.09;;;11.09;37.95
20628;BME280;10473;42.734;24.258;2023-02-15T13:50:20;92829.50;;;10.91;38.85
20628;BME280;10473;42.734;24.258;2023-02-15T13:53:13;92833.63;;;10.88;39.68
20628;BME280;10473;42.734;24.258;2023-02-15T13:55:50;92823.75;;;10.73;39.64